Time;durP1;ratioP1;P1;durP2;ratioP2;P2;SDS_P1;SDS_P2;PMS_P1;PMS_P2;Temp;Humidity;BMP_temperature;BMP_pressure;BME280_temperature;BME280_humidity;BME280_pressure;Samples;Min_cycle;Max_cycle;Signal;HPM_P1;HPM_P2
2023/02/25 00:00:29;;;;;;;3.38;1.77;;;;;;;1.46;100.00;99112.31;4963813;28;20116;-74
2023/02/25 00:02:57;;;;;;;9.52;1.70;;;;;;;1.49;100.00;99101.50;4973764;28;20034;-74
2023/02/25 00:05:23;;;;;;;5.68;1.85;;;;;;;1.41;100.00;99106.66;5001325;28;20038;-76
2023/02/25 00:07:48;;;;;;;5.85;1.95;;;;;;;1.35;100.00;99101.97;4993353;28;20030;-75
2023/02/25 00:10:14;;;;;;;6.18;2.28;;;;;;;1.43;100.00;99125.75;4975306;28;20103;-74
2023/02/25 00:12:40;;;;;;;6.53;1.67;;;;;;;1.37;100.00;99108.72;4959530;28;20030;-75
2023/02/25 00:15:07;;;;;;;6.60;2.33;;;;;;;1.38;100.00;99104.28;5000601;28;20089;-74
2023/02/25 00:17:33;;;;;;;7.22;1.48;;;;;;;1.39;100.00;99119.94;4974946;28;20030;-74
2023/02/25 00:19:59;;;;;;;14.27;1.65;;;;;;;1.38;100.00;99131.44;4999864;28;20483;-74
2023/02/25 00:22:25;;;;;;;3.45;1.08;;;;;;;1.37;100.00;99126.31;4984256;28;20476;-74
2023/02/25 00:24:52;;;;;;;;;;;;;;;1.40;100.00;99136.53;4957235;28;20026;-75
2023/02/25 00:27:17;;;;;;;7.88;2.17;;;;;;;1.35;100.00;99112.47;4998942;28;19963;-75
2023/02/25 00:29:42;;;;;;;6.47;2.10;;;;;;;1.37;100.00;99134.22;4973298;28;20045;-75
2023/02/25 00:32:08;;;;;;;10.65;2.00;;;;;;;1.35;100.00;99130.88;4990357;28;20041;-75
2023/02/25 00:34:35;;;;;;;8.70;2.00;;;;;;;1.39;100.00;99124.38;4990562;28;20443;-75
2023/02/25 00:37:00;;;;;;;6.60;1.80;;;;;;;1.37;100.00;99121.88;4975422;28;20019;-75
2023/02/25 00:39:40;;;;;;;4.13;1.88;;;;;;;1.38;100.00;99117.44;4999691;28;20326;-75
2023/02/25 00:42:09;;;;;;;6.25;1.58;;;;;;;1.37;100.00;99103.47;5000316;28;20430;-74
2023/02/25 00:44:35;;;;;;;4.97;2.22;;;;;;;1.44;100.00;99122.13;4998743;28;20121;-74
2023/02/25 00:47:01;;;;;;;;;;;;;;;1.40;100.00;99113.69;4974293;28;20076;-74
2023/02/25 00:49:26;;;;;;;10.95;1.73;;;;;;;1.31;100.00;99119.00;5000567;28;19936;-75
2023/02/25 00:51:52;;;;;;;8.88;2.17;;;;;;;1.31;100.00;99134.78;4988657;28;20511;-75
2023/02/25 00:54:17;;;;;;;2.50;1.50;;;;;;;1.35;100.00;99144.03;4976357;28;20041;-75
2023/02/25 00:56:43;;;;;;;6.70;2.08;;;;;;;1.34;100.00;99152.91;4988927;28;20800;-75
2023/02/25 00:59:08;;;;;;;4.07;1.60;;;;;;;1.39;100.00;99150.69;4990432;28;20029;-75
2023/02/25 01:01:36;;;;;;;7.73;1.63;;;;;;;1.29;100.00;99157.75;4990131;28;20026;-75
2023/02/25 01:04:02;;;;;;;5.97;2.78;;;;;;;1.20;100.00;99157.63;4976342;28;20562;-75
2023/02/25 01:06:30;;;;;;;8.20;1.55;;;;;;;1.13;100.00;99161.81;4990610;28;20041;-75
2023/02/25 01:08:57;;;;;;;12.45;2.25;;;;;;;1.15;100.00;99174.81;4997069;28;20030;-75
2023/02/25 01:11:28;;;;;;;5.88;2.20;;;;;;;1.08;100.00;99182.44;4999108;28;20453;-75
2023/02/25 01:13:56;;;;;;;5.40;1.75;;;;;;;0.96;100.00;99171.22;4974696;28;20035;-75
2023/02/25 01:16:25;;;;;;;6.22;2.20;;;;;;;1.01;100.00;99197.09;4974188;28;20034;-75
2023/02/25 01:18:53;;;;;;;9.75;2.55;;;;;;;1.05;100.00;99211.59;4996931;28;20069;-75
2023/02/25 01:21:27;;;;;;;7.25;3.20;;;;;;;1.11;100.00;99218.13;4994427;28;20040;-75
2023/02/25 01:23:58;;;;;;;10.43;3.08;;;;;;;1.20;100.00;99220.72;4996768;28;20081;-75
2023/02/25 01:26:30;;;;;;;9.45;2.60;;;;;;;1.15;100.00;99201.09;4989527;28;20408;-75
2023/02/25 01:28:56;;;;;;;6.05;2.08;;;;;;;1.22;100.00;99212.72;5001878;28;20380;-75
2023/02/25 01:31:23;;;;;;;9.38;2.13;;;;;;;1.14;100.00;99187.09;4994133;28;20029;-75
2023/02/25 01:33:50;;;;;;;7.55;2.33;;;;;;;1.13;100.00;99169.69;4986193;28;20034;-75
2023/02/25 01:36:15;;;;;;;5.80;2.38;;;;;;;1.13;100.00;99166.22;4993829;28;20046;-75
2023/02/25 01:38:41;;;;;;;6.20;1.55;;;;;;;1.18;100.00;99151.69;4976231;28;20037;-75
2023/02/25 01:41:07;;;;;;;9.75;2.38;;;;;;;1.18;100.00;99133.28;4993495;28;20034;-75
2023/02/25 01:43:33;;;;;;;8.25;1.83;;;;;;;1.21;100.00;99105.88;5003524;28;20033;-75
2023/02/25 01:45:59;;;;;;;5.03;2.20;;;;;;;1.16;100.00;99079.19;4984518;28;20049;-75
2023/02/25 01:48:33;;;;;;;11.88;2.30;;;;;;;1.22;100.00;99076.81;4986203;28;20105;-75
2023/02/25 01:51:09;;;;;;;5.63;1.95;;;;;;;1.23;100.00;99057.44;4998273;28;20125;-75
2023/02/25 01:53:43;;;;;;;11.85;2.72;;;;;;;1.16;100.00;99018.72;4959182;28;20038;-75
2023/02/25 01:56:12;;;;;;;11.45;2.03;;;;;;;1.21;100.00;99003.34;4993424;28;20089;-75
2023/02/25 01:58:38;;;;;;;7.05;1.70;;;;;;;1.20;100.00;98973.63;4980743;28;20065;-75
2023/02/25 02:01:08;;;;;;;4.68;1.00;;;;;;;1.22;100.00;98950.63;4964421;28;20066;-76
2023/02/25 02:03:34;;;;;;;5.32;1.67;;;;;;;1.22;100.00;98919.09;5003057;28;20042;-75
2023/02/25 02:06:22;;;;;;;7.18;1.23;;;;;;;1.18;100.00;98846.75;4976031;28;20026;-75
2023/02/25 02:08:48;;;;;;;9.35;1.30;;;;;;;1.21;100.00;98846.44;4976054;28;20696;-75
2023/02/25 02:11:14;;;;;;;5.45;1.65;;;;;;;1.32;100.00;98805.16;4974081;28;20031;-76
2023/02/25 02:13:47;;;;;;;;;;;;;;;1.29;100.00;98764.22;4960111;28;20049;-75
2023/02/25 02:16:25;;;;;;;10.18;2.10;;;;;;;1.18;100.00;98717.94;5001821;28;20380;-75
2023/02/25 02:19:14;;;;;;;5.05;1.30;;;;;;;1.21;100.00;98724.69;4974953;28;20045;-75
2023/02/25 02:22:11;;;;;;;4.45;1.73;;;;;;;1.27;100.00;98690.75;4965604;28;20056;-75
2023/02/25 02:25:06;;;;;;;4.72;1.17;;;;;;;1.20;100.00;98665.22;4956097;28;20100;-75
2023/02/25 02:27:54;;;;;;;4.28;1.38;;;;;;;1.24;100.00;98672.66;4972485;28;20125;-75
2023/02/25 02:30:37;;;;;;;4.25;1.15;;;;;;;1.29;100.00;98610.88;4992548;28;20077;-75
2023/02/25 02:33:12;;;;;;;3.63;0.93;;;;;;;1.23;100.00;98550.06;5000706;28;20026;-75
2023/02/25 02:36:01;;;;;;;3.43;1.13;;;;;;;1.17;100.00;98489.41;5002002;28;20929;-75
2023/02/25 02:38:34;;;;;;;7.15;1.77;;;;;;;1.18;100.00;98418.28;4975768;28;20383;-75
2023/02/25 02:41:16;;;;;;;3.20;1.00;;;;;;;1.16;100.00;98396.59;4976367;28;20030;-75
2023/02/25 02:43:50;;;;;;;4.63;1.35;;;;;;;1.23;100.00;98402.88;4971330;28;20044;-76
2023/02/25 02:46:23;;;;;;;1.65;1.13;;;;;;;1.18;100.00;98347.34;4994408;28;20049;-75
2023/02/25 02:49:12;;;;;;;2.97;0.90;;;;;;;1.20;100.00;98334.84;4974286;28;20447;-75
2023/02/25 02:51:52;;;;;;;4.47;0.80;;;;;;;1.19;100.00;98338.44;4994994;28;20667;-75
2023/02/25 02:54:20;;;;;;;4.43;0.88;;;;;;;1.17;100.00;98358.84;4994869;28;20042;-75
2023/02/25 02:56:50;;;;;;;3.40;0.63;;;;;;;1.18;100.00;98357.03;4974391;28;20030;-75
2023/02/25 02:59:35;;;;;;;5.13;1.52;;;;;;;1.13;100.00;98383.78;5000535;28;20120;-75
2023/02/25 03:02:07;;;;;;;6.80;1.33;;;;;;;1.12;100.00;98403.16;4999573;28;20034;-75
2023/02/25 03:04:37;;;;;;;3.63;1.30;;;;;;;1.05;100.00;98410.88;4996752;28;20695;-75
2023/02/25 03:07:06;;;;;;;1.70;0.70;;;;;;;1.05;100.00;98441.56;4974887;28;20030;-75
2023/02/25 03:09:36;;;;;;;6.10;1.20;;;;;;;1.08;100.00;98496.47;5002033;28;20034;-75
2023/02/25 03:12:02;;;;;;;7.28;1.20;;;;;;;1.03;100.00;98520.56;4982826;28;20395;-75
2023/02/25 03:14:31;;;;;;;4.72;0.80;;;;;;;1.00;100.00;98551.56;4991954;28;20034;-76
2023/02/25 03:17:04;;;;;;;4.03;1.35;;;;;;;0.98;100.00;98575.41;4982440;28;20394;-75
2023/02/25 03:19:40;;;;;;;7.47;1.80;;;;;;;0.93;100.00;98596.03;4979348;28;20409;-75
2023/02/25 03:22:22;;;;;;;3.40;1.00;;;;;;;0.95;100.00;98625.63;5001132;28;20034;-75
2023/02/25 03:25:01;;;;;;;8.75;1.83;;;;;;;1.04;100.00;98668.56;4984107;28;20041;-76
2023/02/25 03:27:33;;;;;;;6.75;0.98;;;;;;;1.04;100.00;98703.53;4984710;28;20027;-75
2023/02/25 03:30:14;;;;;;;8.95;1.65;;;;;;;1.04;100.00;98729.00;4974464;28;20037;-75
2023/02/25 03:32:45;;;;;;;9.00;1.48;;;;;;;1.11;100.00;98777.34;4999036;28;20089;-75
2023/02/25 03:35:13;;;;;;;8.18;1.98;;;;;;;1.12;100.00;98802.66;4959680;28;20038;-75
2023/02/25 03:37:42;;;;;;;7.50;1.02;;;;;;;1.06;100.00;98811.16;4958489;28;20065;-75
2023/02/25 03:40:12;;;;;;;4.30;1.52;;;;;;;1.09;100.00;98860.78;4977186;28;20041;-75
2023/02/25 03:42:43;;;;;;;6.18;1.27;;;;;;;1.10;100.00;98887.88;4990636;28;20416;-75
2023/02/25 03:45:12;;;;;;;4.38;0.73;;;;;;;1.07;100.00;98920.53;4971760;28;20507;-75
2023/02/25 03:47:38;;;;;;;5.35;1.58;;;;;;;1.12;100.00;98949.03;4975312;28;20508;-75
2023/02/25 03:50:17;;;;;;;4.25;1.35;;;;;;;1.07;100.00;98961.78;4983274;28;20030;-75
2023/02/25 03:52:45;;;;;;;4.63;0.95;;;;;;;1.07;100.00;98994.13;4990342;28;20042;-75
2023/02/25 03:55:28;;;;;;;11.05;1.42;;;;;;;1.11;100.00;99034.13;4954109;28;20034;-75
2023/02/25 03:57:53;;;;;;;1.75;1.13;;;;;;;1.12;100.00;99056.78;4990887;23;20034;-73
2023/02/25 04:00:28;;;;;;;4.95;1.33;;;;;;;1.08;100.00;99084.31;5004156;28;20048;-75
2023/02/25 04:02:54;;;;;;;6.63;1.00;;;;;;;1.05;100.00;99094.19;5015230;28;20467;-76
2023/02/25 04:05:21;;;;;;;3.38;0.93;;;;;;;0.98;100.00;99093.09;5012744;28;20099;-76
2023/02/25 04:07:47;;;;;;;3.10;0.70;;;;;;;0.95;100.00;99095.97;4981210;28;20410;-74
2023/02/25 04:10:15;;;;;;;3.83;0.77;;;;;;;1.03;100.00;99119.75;4995952;28;20041;-73
2023/02/25 04:12:40;;;;;;;5.63;0.60;;;;;;;0.97;100.00;99109.81;5011168;28;20045;-75
2023/02/25 04:15:07;;;;;;;1.55;0.98;;;;;;;0.98;100.00;99100.13;5003615;28;20029;-76
2023/02/25 04:17:33;;;;;;;5.10;1.30;;;;;;;1.00;100.00;99096.38;5012777;28;20030;-75
2023/02/25 04:19:59;;;;;;;2.67;0.75;;;;;;;1.02;100.00;99112.00;5000435;28;20048;-74
2023/02/25 04:22:24;;;;;;;5.25;0.85;;;;;;;0.95;100.00;99111.75;5008488;28;20030;-76
2023/02/25 04:24:50;;;;;;;2.65;0.90;;;;;;;0.88;100.00;99151.88;4999941;28;20088;-76
2023/02/25 04:27:15;;;;;;;4.38;0.82;;;;;;;0.91;100.00;99201.50;4993214;28;20439;-75
2023/02/25 04:29:42;;;;;;;2.90;1.05;;;;;;;0.91;100.00;99240.91;5011908;28;20036;-76
2023/02/25 04:32:08;;;;;;;4.68;1.17;;;;;;;0.86;100.00;99258.91;4997743;28;20030;-74
2023/02/25 04:34:34;;;;;;;5.45;1.85;;;;;;;0.91;100.00;99280.34;5000872;28;20042;-75
2023/02/25 04:37:01;;;;;;;5.20;0.80;;;;;;;0.81;100.00;99278.53;4996641;28;20055;-74
2023/02/25 04:39:27;;;;;;;2.95;1.55;;;;;;;0.90;100.00;99304.97;5014623;28;20057;-75
2023/02/25 04:41:53;;;;;;;3.78;0.85;;;;;;;0.97;100.00;99296.41;5014039;28;20474;-75
2023/02/25 04:44:18;;;;;;;5.50;1.05;;;;;;;0.87;100.00;99268.44;4981754;28;20073;-75
2023/02/25 04:46:44;;;;;;;7.97;1.60;;;;;;;0.90;100.00;99287.41;5009779;28;20514;-75
2023/02/25 04:49:10;;;;;;;6.45;0.80;;;;;;;1.00;100.00;99300.53;4995282;28;20030;-75
2023/02/25 04:51:37;;;;;;;7.95;2.15;;;;;;;0.98;100.00;99284.06;5008464;28;20053;-75
2023/02/25 04:54:02;;;;;;;3.20;1.35;;;;;;;0.98;100.00;99274.41;5003764;28;20026;-76
2023/02/25 04:56:28;;;;;;;8.88;1.08;;;;;;;1.01;100.00;99253.13;5010143;28;20046;-73
2023/02/25 04:58:55;;;;;;;3.45;1.30;;;;;;;0.93;100.00;99237.19;4998777;28;20088;-75
2023/02/25 05:01:20;;;;;;;4.97;1.10;;;;;;;0.96;100.00;99222.94;5011096;28;20038;-75
2023/02/25 05:03:45;;;;;;;5.70;1.30;;;;;;;0.95;100.00;99200.28;5016272;28;20475;-74
2023/02/25 05:06:11;;;;;;;1.67;0.60;;;;;;;0.98;100.00;99164.03;4999251;28;20026;-75
2023/02/25 05:08:36;;;;;;;4.15;0.63;;;;;;;0.99;100.00;99070.25;5000307;28;20624;-74
2023/02/25 05:11:03;;;;;;;1.92;0.60;;;;;;;0.99;100.00;98981.72;5003822;28;20544;-75
2023/02/25 05:13:28;;;;;;;5.85;0.60;;;;;;;1.00;100.00;98895.81;4999509;28;20054;-74
2023/02/25 05:16:07;;;;;;;3.20;0.82;;;;;;;1.04;100.00;98860.41;5001526;28;20034;-75
2023/02/25 05:18:41;;;;;;;6.38;1.20;;;;;;;1.06;100.00;98821.66;4997210;28;20030;-72
2023/02/25 05:21:09;;;;;;;4.18;0.60;;;;;;;1.06;100.00;98819.03;5003234;28;20034;-74
2023/02/25 05:23:34;;;;;;;1.13;0.65;;;;;;;1.02;100.00;98807.97;5012913;28;20506;-75
2023/02/25 05:26:00;;;;;;;4.20;1.02;;;;;;;1.01;100.00;98814.22;5001906;28;20038;-73
2023/02/25 05:28:25;;;;;;;6.57;1.02;;;;;;;1.06;100.00;98855.81;4996385;28;20026;-75
2023/02/25 05:30:52;;;;;;;8.57;1.15;;;;;;;1.01;100.00;98877.28;5016381;28;20041;-75
2023/02/25 05:33:17;;;;;;;2.47;0.65;;;;;;;0.95;100.00;98903.31;4997625;28;20041;-75
2023/02/25 05:35:43;;;;;;;8.85;1.20;;;;;;;0.61;100.00;98912.59;5002475;28;20096;-73
2023/02/25 05:38:09;;;;;;;4.32;0.57;;;;;;;0.54;100.00;98994.69;5001176;28;20049;-75
2023/02/25 05:40:35;;;;;;;3.15;0.65;;;;;;;0.46;100.00;99083.88;4999236;28;20545;-74
2023/02/25 05:43:00;;;;;;;2.92;0.60;;;;;;;0.46;100.00;99157.38;4999380;28;20028;-74
2023/02/25 05:45:26;;;;;;;2.53;0.47;;;;;;;0.49;100.00;99180.75;4998333;28;20484;-74
2023/02/25 05:47:51;;;;;;;7.22;0.88;;;;;;;0.53;100.00;99192.63;5015905;28;20049;-75
2023/02/25 05:50:17;;;;;;;3.83;0.77;;;;;;;0.63;100.00;99164.56;5014621;28;20146;-74
2023/02/25 05:52:42;;;;;;;2.63;0.77;;;;;;;0.70;100.00;99126.28;5004620;28;20113;-75
2023/02/25 05:55:08;;;;;;;6.45;0.93;;;;;;;0.68;100.00;99046.81;5000721;28;20386;-74
2023/02/25 05:57:34;;;;;;;3.50;0.40;;;;;;;0.78;100.00;99008.22;4996564;28;20069;-75
2023/02/25 06:00:00;;;;;;;4.22;0.70;;;;;;;0.75;100.00;98948.09;4999409;28;20029;-74
2023/02/25 06:02:27;;;;;;;3.85;0.75;;;;;;;0.78;100.00;98915.44;5014600;28;20042;-75
2023/02/25 06:04:53;;;;;;;3.38;0.60;;;;;;;0.81;100.00;98883.63;5008080;28;20180;-73
2023/02/25 06:07:18;;;;;;;7.68;0.63;;;;;;;0.78;100.00;98873.41;5021749;28;20021;-75
2023/02/25 06:09:44;;;;;;;7.07;0.80;;;;;;;0.78;100.00;98889.16;5012278;28;20418;-74
2023/02/25 06:12:10;;;;;;;6.38;1.30;;;;;;;0.76;100.00;98886.69;5006322;28;20037;-74
2023/02/25 06:14:35;;;;;;;6.82;0.80;;;;;;;0.71;100.00;98873.16;5022740;28;20099;-75
2023/02/25 06:17:01;;;;;;;1.95;0.95;;;;;;;0.62;100.00;98868.78;5006814;28;20034;-73
2023/02/25 06:19:27;;;;;;;4.15;0.68;;;;;;;0.61;100.00;98896.03;5007103;28;20038;-74
2023/02/25 06:21:53;;;;;;;3.80;0.65;;;;;;;0.63;100.00;98913.28;5002998;28;20091;-75
2023/02/25 06:24:20;;;;;;;4.07;0.70;;;;;;;0.60;100.00;98928.50;5022909;28;20042;-73
2023/02/25 06:26:45;;;;;;;3.60;0.90;;;;;;;0.58;100.00;98927.81;5006342;28;20381;-74
2023/02/25 06:29:11;;;;;;;6.53;0.80;;;;;;;0.56;100.00;98937.63;5006127;28;20100;-74
2023/02/25 06:31:36;;;;;;;5.40;0.85;;;;;;;0.56;100.00;98935.00;5004901;28;20399;-74
2023/02/25 06:34:02;;;;;;;3.30;0.60;;;;;;;0.62;100.00;98932.63;5006581;28;20030;-75
2023/02/25 06:36:28;;;;;;;2.45;0.88;;;;;;;0.67;100.00;98929.56;4989895;28;20103;-71
2023/02/25 06:38:53;;;;;;;6.53;1.08;;;;;;;0.68;100.00;98897.09;5006269;28;20038;-72
2023/02/25 06:41:20;;;;;;;8.38;1.00;;;;;;;0.80;100.00;98855.69;5005321;28;20038;-74
2023/02/25 06:43:50;;;;;;;5.95;0.70;;;;;;;0.78;100.00;98748.13;5022821;28;20057;-74
2023/02/25 06:46:18;;;;;;;5.90;0.77;;;;;;;0.77;100.00;98646.69;5007070;28;20045;-74
2023/02/25 06:48:43;;;;;;;2.42;0.80;;;;;;;0.77;100.00;98632.69;4989085;28;20379;-72
2023/02/25 06:51:10;;;;;;;3.65;0.98;;;;;;;0.64;100.00;98677.72;5007673;28;20116;-74
2023/02/25 06:53:37;;;;;;;2.60;0.65;;;;;;;0.62;100.00;98782.09;5007455;28;20038;-75
2023/02/25 06:56:03;;;;;;;4.15;0.75;;;;;;;0.45;100.00;98851.97;5005823;28;20039;-72
2023/02/25 06:58:28;;;;;;;2.03;0.45;;;;;;;0.53;100.00;98919.53;5007117;28;20525;-75
2023/02/25 07:00:54;;;;;;;6.35;1.75;;;;;;;0.51;100.00;98903.91;5017767;28;20122;-74
2023/02/25 07:03:19;;;;;;;6.68;1.45;;;;;;;0.45;100.00;98872.16;5005829;28;20037;-75
2023/02/25 07:05:44;;;;;;;2.05;1.13;;;;;;;0.54;100.00;98894.91;5020350;28;20042;-75
2023/02/25 07:08:10;;;;;;;3.43;0.57;;;;;;;0.39;100.00;98929.50;5005661;28;20026;-74
2023/02/25 07:10:35;;;;;;;6.78;0.65;;;;;;;0.36;100.00;99005.94;5002286;28;20092;-74
2023/02/25 07:13:01;;;;;;;1.73;0.60;;;;;;;0.27;100.00;99111.75;5005667;28;20030;-75
2023/02/25 07:15:26;;;;;;;5.10;1.00;;;;;;;0.32;100.00;99192.75;5006798;28;20414;-74
2023/02/25 07:17:51;;;;;;;3.08;0.82;;;;;;;0.29;100.00;99251.59;5005207;28;20112;-74
2023/02/25 07:20:17;;;;;;;5.47;0.73;;;;;;;0.30;100.00;99320.66;5004066;28;20476;-75
2023/02/25 07:22:43;;;;;;;6.97;1.48;;;;;;;0.27;100.00;99362.94;5004954;28;20300;-75
2023/02/25 07:25:12;;;;;;;6.03;1.23;;;;;;;0.28;100.00;99402.22;5004962;28;20088;-74
2023/02/25 07:27:42;;;;;;;7.53;1.05;;;;;;;0.19;100.00;99389.84;5022017;28;20045;-74
2023/02/25 07:30:11;;;;;;;6.10;1.02;;;;;;;0.24;100.00;99392.91;5005455;28;20038;-73
2023/02/25 07:32:36;;;;;;;4.10;0.93;;;;;;;0.29;100.00;99414.34;5013184;28;20495;-74
2023/02/25 07:35:03;;;;;;;6.80;2.20;;;;;;;0.25;100.00;99428.69;5005512;28;20033;-75
2023/02/25 07:37:29;;;;;;;2.83;1.02;;;;;;;0.26;100.00;99446.13;5005395;28;20053;-73
2023/02/25 07:39:56;;;;;;;2.92;1.17;;;;;;;0.25;100.00;99462.81;5002983;28;20065;-73
2023/02/25 07:42:22;;;;;;;5.45;0.75;;;;;;;0.22;100.00;99462.25;5016959;28;20030;-75
2023/02/25 07:44:47;;;;;;;7.25;1.42;;;;;;;0.27;100.00;99488.97;5005054;28;20509;-75
2023/02/25 07:47:12;;;;;;;4.43;0.80;;;;;;;0.34;100.00;99501.44;5017459;28;20417;-72
2023/02/25 07:49:38;;;;;;;3.22;0.93;;;;;;;0.29;100.00;99480.00;5013034;28;20119;-73
2023/02/25 07:52:03;;;;;;;4.90;0.87;;;;;;;0.34;100.00;99508.50;4998046;28;20064;-73
2023/02/25 07:54:28;;;;;;;7.37;0.93;;;;;;;0.34;100.00;99529.50;5006501;28;20284;-75
2023/02/25 07:56:54;;;;;;;4.90;0.88;;;;;;;0.35;100.00;99546.91;5017068;28;20434;-75
2023/02/25 07:59:19;;;;;;;7.70;0.80;;;;;;;0.34;100.00;99564.44;5004418;28;20038;-75
2023/02/25 08:01:44;;;;;;;5.40;0.95;;;;;;;0.44;100.00;99609.16;5019697;28;20124;-75
2023/02/25 08:04:10;;;;;;;3.83;0.90;;;;;;;0.41;100.00;99625.19;5003432;28;20042;-74
2023/02/25 08:06:38;;;;;;;5.82;1.63;;;;;;;0.37;100.00;99613.25;5001020;28;20046;-73
2023/02/25 08:09:05;;;;;;;7.10;0.80;;;;;;;0.33;100.00;99625.81;5006369;28;20049;-74
2023/02/25 08:11:30;;;;;;;2.53;0.68;;;;;;;0.39;100.00;99630.53;5004621;28;20045;-75
2023/02/25 08:13:58;;;;;;;4.22;0.63;;;;;;;0.38;100.00;99615.78;5005825;28;20087;-74
2023/02/25 08:16:23;;;;;;;5.38;1.10;;;;;;;0.34;100.00;99609.09;4993676;28;20537;-73
2023/02/25 08:18:49;;;;;;;13.43;1.95;;;;;;;0.40;100.00;99618.28;5002466;28;20033;-74
2023/02/25 08:21:22;;;;;;;6.30;0.85;;;;;;;0.37;100.00;99590.44;4997744;28;20136;-74
2023/02/25 08:23:48;;;;;;;5.97;0.88;;;;;;;0.34;100.00;99595.13;4998911;28;20602;-73
2023/02/25 08:26:16;;;;;;;12.95;2.10;;;;;;;0.35;100.00;99602.91;4994306;28;20092;-73
2023/02/25 08:28:42;;;;;;;5.72;0.90;;;;;;;0.34;100.00;99611.72;4998854;28;20034;-75
2023/02/25 08:31:10;;;;;;;4.05;0.80;;;;;;;0.40;100.00;99600.72;5004844;28;20073;-73
2023/02/25 08:33:38;;;;;;;6.03;1.23;;;;;;;0.52;100.00;99603.31;5002941;28;20034;-74
2023/02/25 08:36:15;;;;;;;6.32;1.23;;;;;;;0.50;100.00;99581.59;5003615;28;20030;-73
2023/02/25 08:38:42;;;;;;;8.23;1.55;;;;;;;0.59;100.00;99562.44;5011802;28;20046;-74
2023/02/25 08:41:07;;;;;;;;;;;;;;;0.56;100.00;99533.78;5002675;28;20044;-74
2023/02/25 08:43:33;;;;;;;8.40;2.95;;;;;;;0.62;100.00;99522.78;4993697;28;19918;-72
2023/02/25 08:45:59;;;;;;;5.63;1.90;;;;;;;0.71;100.00;99518.56;5003488;28;20468;-75
2023/02/25 08:48:25;;;;;;;7.03;0.82;;;;;;;0.71;100.00;99497.53;4996195;28;20113;-73
2023/02/25 08:50:51;;;;;;;4.53;1.35;;;;;;;0.83;100.00;99471.03;5002829;28;20041;-74
2023/02/25 08:53:16;;;;;;;6.00;1.20;;;;;;;1.11;100.00;99442.38;4994509;28;20480;-74
2023/02/25 08:55:42;;;;;;;5.53;0.93;;;;;;;1.07;100.00;99306.09;4996586;28;20030;-74
2023/02/25 08:58:07;;;;;;;5.18;1.17;;;;;;;1.15;100.00;99136.22;5002558;28;20061;-75
2023/02/25 09:00:33;;;;;;;2.65;1.05;;;;;;;1.08;100.00;98846.00;4993638;28;20026;-72
2023/02/25 09:02:58;;;;;;;1.67;0.52;;;;;;;1.20;100.00;98607.41;4996723;28;20495;-74
2023/02/25 09:05:24;;;;;;;14.35;2.63;;;;;;;1.13;100.00;98341.75;5008370;28;20105;-74
2023/02/25 09:07:51;;;;;;;5.95;0.98;;;;;;;1.16;100.00;98201.28;5006638;28;20030;-74
2023/02/25 09:10:17;;;;;;;3.60;0.82;;;;;;;1.15;100.00;98040.16;5009089;28;20042;-74
2023/02/25 09:12:43;;;;;;;7.25;0.82;;;;;;;1.14;100.00;97844.03;4998563;28;20421;-74
2023/02/25 09:15:10;;;;;;;4.07;0.70;;;;;;;1.18;100.00;97740.22;4997133;28;20042;-74
2023/02/25 09:17:35;;;;;;;6.13;0.52;;;;;;;1.12;100.00;97667.34;4986050;28;20025;-74
2023/02/25 09:20:05;;;;;;;6.13;0.70;;;;;;;1.12;100.00;97667.34;5003290;28;20479;-73
2023/02/25 09:22:31;;;;;;;1.70;0.40;;;;;;;0.98;100.00;97519.22;5010137;28;20042;-75
2023/02/25 09:24:57;;;;;;;5.63;0.85;;;;;;;1.09;100.00;97578.38;4996110;28;20057;-74
2023/02/25 09:27:22;;;;;;;7.45;0.60;;;;;;;1.16;100.00;97628.41;4996072;28;20062;-73
2023/02/25 09:29:47;;;;;;;0.63;0.30;;;;;;;1.15;100.00;97664.38;4997960;28;20045;-72
2023/02/25 09:32:19;;;;;;;4.38;1.40;;;;;;;1.25;100.00;97770.06;4996489;28;20463;-73
2023/02/25 09:34:47;;;;;;;4.00;1.13;;;;;;;1.19;100.00;97747.09;5016069;28;20395;-75
2023/02/25 09:37:13;;;;;;;5.20;1.08;;;;;;;1.25;100.00;97788.47;4996701;28;20033;-73
2023/02/25 09:39:40;;;;;;;4.90;1.20;;;;;;;1.14;100.00;97798.56;5003211;28;20072;-74
2023/02/25 09:42:27;;;;;;;10.30;2.30;;;;;;;1.05;100.00;97874.00;5003242;28;20624;-73
2023/02/25 09:44:58;;;;;;;4.90;1.23;;;;;;;0.98;100.00;97922.94;4989755;28;20049;-71
2023/02/25 09:47:53;;;;;;;4.97;0.90;;;;;;;1.16;100.00;98089.09;5011867;28;20455;-75
2023/02/25 09:50:31;;;;;;;9.40;1.17;;;;;;;1.19;100.00;98109.78;5018338;28;20560;-74
2023/02/25 09:53:16;;;;;;;5.60;1.20;;;;;;;1.27;100.00;98158.91;5005842;28;20037;-74
2023/02/25 09:55:44;;;;;;;;;;;;;;;1.32;100.00;98205.72;5013182;28;20041;-73
2023/02/25 09:58:40;;;;;;;6.10;1.48;;;;;;;1.39;100.00;98289.03;5010395;28;19968;-74
2023/02/25 10:01:15;;;;;;;5.50;1.52;;;;;;;1.19;100.00;98229.88;4996610;28;20038;-74
2023/02/25 10:04:22;;;;;;;5.65;0.95;;;;;;;1.46;100.00;98349.69;5016329;28;20456;-72
2023/02/25 10:06:50;;;;;;;12.23;1.45;;;;;;;1.78;100.00;98456.75;4942388;28;20123;-72
2023/02/25 10:09:44;;;;;;;8.80;1.02;;;;;;;1.86;100.00;98354.13;4995128;28;20068;-74
2023/02/25 10:12:44;;;;;;;7.90;1.00;;;;;;;1.82;100.00;98268.59;4997223;28;20077;-75
2023/02/25 10:15:25;;;;;;;7.50;1.02;;;;;;;1.87;100.00;98204.97;5001350;28;20042;-75
2023/02/25 10:18:05;;;;;;;10.05;0.85;;;;;;;1.81;100.00;98137.25;5023169;28;20030;-74
2023/02/25 10:20:45;;;;;;;9.80;2.30;;;;;;;1.66;100.00;98061.69;5026321;28;20105;-73
2023/02/25 10:23:23;;;;;;;6.72;0.98;;;;;;;1.64;100.00;98086.50;5007353;28;20116;-73
2023/02/25 10:26:08;;;;;;;6.95;1.10;;;;;;;1.68;100.00;98085.97;5019219;28;20100;-73
2023/02/25 10:28:34;;;;;;;8.55;2.13;;;;;;;1.83;100.00;98101.06;5025997;28;20022;-74
2023/02/25 10:31:03;;;;;;;6.47;1.15;;;;;;;1.83;100.00;97993.19;5022248;28;20037;-74
2023/02/25 10:33:39;;;;;;;6.90;0.70;;;;;;;1.60;100.00;97803.81;5015671;28;20050;-73
2023/02/25 10:36:16;;;;;;;5.45;1.05;;;;;;;1.58;100.00;97803.97;5003153;28;20040;-74
2023/02/25 10:38:50;;;;;;;11.73;1.50;;;;;;;1.71;100.00;97842.84;5004162;28;20074;-74
2023/02/25 10:41:17;;;;;;;4.05;0.60;;;;;;;1.93;100.00;97848.25;5014999;28;20037;-73
2023/02/25 10:43:44;;;;;;;19.55;1.70;;;;;;;1.88;100.00;97696.19;5010196;28;20990;-73
2023/02/25 10:46:20;;;;;;;5.35;1.13;;;;;;;1.95;100.00;97614.72;5006468;28;20030;-73
2023/02/25 10:48:54;;;;;;;7.05;1.10;;;;;;;2.60;100.00;97824.53;5001491;28;20057;-74
2023/02/25 10:51:19;;;;;;;9.68;1.25;;;;;;;3.09;100.00;97744.81;5005809;28;20042;-73
2023/02/25 10:53:57;;;;;;;5.50;0.70;;;;;;;2.87;100.00;97271.50;5018181;28;20038;-73
2023/02/25 10:56:41;;;;;;;20.73;2.35;;;;;;;2.98;99.54;97193.72;4999374;28;20289;-73
2023/02/25 10:59:20;;;;;;;3.20;0.82;;;;;;;2.89;95.23;96769.69;5011469;28;20036;-73
2023/02/25 11:01:47;;;;;;;3.30;0.88;;;;;;;2.86;94.39;96720.06;5005670;28;20113;-72
2023/02/25 11:04:16;;;;;;;5.53;1.95;;;;;;;4.21;94.84;97220.38;5001114;28;20029;-72
2023/02/25 11:06:42;;;;;;;10.75;2.10;;;;;;;3.61;93.03;96740.44;4998132;28;20045;-71
2023/02/25 11:09:17;;;;;;;;;;;;;;;2.94;93.91;96782.25;4997246;28;20033;-71
2023/02/25 11:11:52;;;;;;;11.48;1.50;;;;;;;2.83;95.87;97062.94;4999053;28;19921;-74
2023/02/25 11:14:17;;;;;;;8.10;1.33;;;;;;;3.23;96.11;97278.28;4998872;28;20045;-73
2023/02/25 11:16:44;;;;;;;7.83;1.57;;;;;;;3.71;93.80;97193.69;4998986;28;20026;-74
2023/02/25 11:19:16;;;;;;;3.53;1.13;;;;;;;4.42;92.48;97235.13;4999747;28;20583;-74
2023/02/25 11:21:43;;;;;;;8.93;1.30;;;;;;;3.21;91.00;96637.94;4997931;28;20456;-74
2023/02/25 11:24:30;;;;;;;7.50;1.10;;;;;;;2.98;90.81;96690.41;4997349;28;20570;-73
2023/02/25 11:26:56;;;;;;;9.10;1.63;;;;;;;2.40;90.68;96544.72;5017207;28;20041;-73
2023/02/25 11:29:31;;;;;;;9.45;2.08;;;;;;;3.26;90.29;96883.25;5001369;28;20537;-74
2023/02/25 11:32:11;;;;;;;5.27;1.10;;;;;;;3.45;89.43;96791.06;4999770;28;20036;-73
2023/02/25 11:34:48;;;;;;;10.82;1.25;;;;;;;3.19;88.18;96624.16;5006609;28;20296;-74
2023/02/25 11:37:39;;;;;;;7.53;1.70;;;;;;;3.95;88.59;96965.25;5005598;28;20167;-74
2023/02/25 11:40:23;;;;;;;7.20;2.05;;;;;;;3.29;87.13;96608.66;5005169;28;20072;-73
2023/02/25 11:43:22;;;;;;;8.50;1.45;;;;;;;2.96;87.01;96593.13;5006759;28;20084;-73
2023/02/25 11:46:21;;;;;;;10.65;1.42;;;;;;;3.53;86.52;96811.88;4994685;28;20084;-73